< < Back
Terminal Aerodrome Forecast


Current Version              Previous Versions:   1  2  3  4  5  6  7  8  9  

Terminal Aerodrome Forecast

933
FTUS42 KGSP 122109 AAB
TAFCLT
TAF AMD
KCLT 122109Z 1221/1318 26004KT P6SM SCT100 BKN200
     FM130300 29007KT P6SM FEW250
     FM131200 32010G17KT P6SM FEW250=



Latest METAR

633
SAUS70 KWBC 130000 RRK
MTRCLT
METAR KCLT 122352Z 00000KT 10SM BKN065 01/M04 A3004 RMK AO2 SLP177
T00061044 10028 20000 53004


USA.gov is the U.S. government's official web portal to all federal, state and local government web resources and services.